Hegina — 3ETX2 — position and weather

sailwx.info

Track history (hours):
 
Tides and Currents Weather Stations Pressure Air Temp Water Temp Dewpoint Dewpoint Depression Visibility Wind Speed Wind Dir Waves Ship Positions

Hegina

Last reported at 2014-Jul-31 12:33 UTC. Time now 2014-Jul-31 13:38 UTC.
Position N 40°50' E 028°55'.

Length 138 m; draft 5.5 m.

Type: Cargo ship. MMSI: 372427000.

Date/timePositionNaut miles runAvg speedWind from/ knotsBaromVisibWave heightAir tempDewpointWater temp
2014-Jul-31 12:33N 40°50' E 028°55'2 1.5
2014-Jul-31 11:33N 40°51' E 028°54'1212.1
2014-Jul-31 10:32N 40°44' E 028°40'76 2.1
2014-Jul-29 22:22N 40°31' E 027°02'2311.5
2014-Jul-29 20:21N 40°19' E 026°36'3410.4
2014-Jul-29 17:07N 39°59' E 026°01'711.9
2014-Jul-29 16:33N 39°54' E 025°55'1111.0
2014-Jul-29 15:33N 39°43' E 025°54'6 0.7
2014-Jul-29 06:17N 39°38' E 025°59'811.3
2014-Jul-29 05:32N 39°31' E 025°53'6212.5
2014-Jul-29 00:33N 38°29' E 025°44'1313.1
2014-Jul-28 23:33N 38°16' E 025°44'32 1.0
2014-Jul-27 14:14N 38°04' E 026°22'912.5
2014-Jul-27 13:33N 37°56' E 026°26'1312.7
2014-Jul-27 12:32N 37°44' E 026°31'1312.6
2014-Jul-27 11:32N 37°33' E 026°40'1512.2
2014-Jul-27 10:17N 37°21' E 026°51'1212.3
2014-Jul-27 09:16N 37°10' E 026°59'29511.8
2014-Jul-26 08:12N 35°49' E 032°52'  
Track history (hours):
 
Tides and Currents Weather Stations Pressure Air Temp Water Temp Dewpoint Dewpoint Depression Visibility Wind Speed Wind Dir Waves Ship Positions

Hegina

Last reported at 2014-Jul-31 12:33 UTC. Time now 2014-Jul-31 13:38 UTC.
Position N 40°50' E 028°55'.

Length 138 m; draft 5.5 m.

Type: Cargo ship. MMSI: 372427000.

Date/timePositionNaut miles runAvg speedWind from/ knotsBaromVisibWave heightAir tempDewpointWater temp
2014-Jul-31 12:33N 40°50' E 028°55'2 1.5
2014-Jul-31 11:33N 40°51' E 028°54'1212.1
2014-Jul-31 10:32N 40°44' E 028°40'76 2.1
2014-Jul-29 22:22N 40°31' E 027°02'2311.5
2014-Jul-29 20:21N 40°19' E 026°36'3410.4
2014-Jul-29 17:07N 39°59' E 026°01'711.9
2014-Jul-29 16:33N 39°54' E 025°55'1111.0
2014-Jul-29 15:33N 39°43' E 025°54'6 0.7
2014-Jul-29 06:17N 39°38' E 025°59'811.3
2014-Jul-29 05:32N 39°31' E 025°53'6212.5
2014-Jul-29 00:33N 38°29' E 025°44'1313.1
2014-Jul-28 23:33N 38°16' E 025°44'32 1.0
2014-Jul-27 14:14N 38°04' E 026°22'912.5
2014-Jul-27 13:33N 37°56' E 026°26'1312.7
2014-Jul-27 12:32N 37°44' E 026°31'1312.6
2014-Jul-27 11:32N 37°33' E 026°40'1512.2
2014-Jul-27 10:17N 37°21' E 026°51'1212.3
2014-Jul-27 09:16N 37°10' E 026°59'29511.8
2014-Jul-26 08:12N 35°49' E 032°52'  

Dump ship's entire track history